createdAt,value
2022-09-09T00:02:12.455Z,16.00
2022-09-09T00:04:40.597Z,15.80
2022-09-09T00:07:07.857Z,15.70
2022-09-09T00:10:01.733Z,15.70
2022-09-09T00:12:35.006Z,15.70
2022-09-09T00:15:13.626Z,15.70
2022-09-09T00:17:43.912Z,15.70
2022-09-09T00:20:11.031Z,15.70
2022-09-09T00:22:39.769Z,15.80
2022-09-09T00:25:11.920Z,15.70
2022-09-09T00:27:45.671Z,15.00
2022-09-09T00:30:17.238Z,15.80
2022-09-09T00:32:45.133Z,15.40
2022-09-09T00:35:19.170Z,15.70
2022-09-09T00:37:50.146Z,15.70
2022-09-09T00:40:23.377Z,15.70
2022-09-09T00:42:53.679Z,15.70
2022-09-09T00:45:48.202Z,15.70
2022-09-09T00:48:17.598Z,15.80
2022-09-09T00:50:56.884Z,15.80
2022-09-09T00:53:24.169Z,15.80
2022-09-09T00:56:10.085Z,15.70
2022-09-09T00:58:37.190Z,16.00
2022-09-09T01:01:10.853Z,15.80
2022-09-09T01:03:54.465Z,15.60
2022-09-09T01:06:32.465Z,15.80
2022-09-09T01:09:18.354Z,15.80
2022-09-09T01:12:03.966Z,15.80
2022-09-09T01:14:37.422Z,15.80
2022-09-09T01:17:23.482Z,15.80
2022-09-09T01:19:50.526Z,15.80
2022-09-09T01:22:20.617Z,15.80
2022-09-09T01:25:10.479Z,15.80
2022-09-09T01:27:38.492Z,15.80
2022-09-09T01:30:09.924Z,15.80
2022-09-09T01:32:45.084Z,15.90
2022-09-09T01:35:28.600Z,15.80
2022-09-09T01:37:55.685Z,15.80
2022-09-09T01:40:23.355Z,15.90
2022-09-09T01:42:52.411Z,15.90
2022-09-09T01:45:19.804Z,15.80
2022-09-09T01:47:47.193Z,15.80
2022-09-09T01:50:16.180Z,15.90
2022-09-09T01:52:45.017Z,15.80
2022-09-09T01:55:12.514Z,15.80
2022-09-09T01:57:39.584Z,15.90
2022-09-09T02:00:09.983Z,15.90
2022-09-09T02:02:43.644Z,15.90
2022-09-09T02:05:19.809Z,15.90
2022-09-09T02:07:48.939Z,15.00
2022-09-09T02:10:24.573Z,15.90
2022-09-09T02:13:21.286Z,14.50
2022-09-09T02:15:51.283Z,15.90
2022-09-09T02:18:20.537Z,15.90
2022-09-09T02:20:48.538Z,15.90
2022-09-09T02:23:16.211Z,15.90
2022-09-09T02:25:45.333Z,15.90
2022-09-09T02:28:13.753Z,15.30
2022-09-09T02:30:41.711Z,16.00
2022-09-09T02:33:11.799Z,16.00
2022-09-09T02:35:39.337Z,16.00
2022-09-09T02:38:08.268Z,15.90
2022-09-09T02:40:35.625Z,15.90
2022-09-09T02:43:03.860Z,15.90
2022-09-09T02:45:40.341Z,15.90
2022-09-09T02:48:14.797Z,15.90
2022-09-09T02:50:47.891Z,16.00
2022-09-09T02:53:17.701Z,15.90
2022-09-09T02:55:48.356Z,16.00
2022-09-09T02:58:18.059Z,15.90
2022-09-09T03:00:47.638Z,15.90
2022-09-09T03:03:15.188Z,15.90
2022-09-09T03:05:44.072Z,16.30
2022-09-09T03:08:12.045Z,16.00
2022-09-09T03:10:39.351Z,15.40
2022-09-09T03:13:06.719Z,16.00
2022-09-09T03:15:33.920Z,17.40
2022-09-09T03:18:01.360Z,16.20
2022-09-09T03:20:29.416Z,15.90
2022-09-09T03:22:57.564Z,15.90
2022-09-09T03:25:24.974Z,15.90
2022-09-09T03:27:55.887Z,15.70
2022-09-09T03:30:24.014Z,15.90
2022-09-09T03:32:51.467Z,16.00
2022-09-09T03:35:18.693Z,15.90
2022-09-09T03:37:46.393Z,15.90
2022-09-09T03:40:13.639Z,16.00
2022-09-09T03:42:41.259Z,16.00
2022-09-09T03:45:10.243Z,15.90
2022-09-09T03:47:37.675Z,15.90
2022-09-09T03:50:08.945Z,16.00
2022-09-09T03:52:39.645Z,15.90
2022-09-09T03:55:07.136Z,16.00
2022-09-09T03:57:36.003Z,16.00
2022-09-09T04:00:06.137Z,16.10
2022-09-09T04:02:33.487Z,16.00
2022-09-09T04:05:00.798Z,16.00
2022-09-09T04:07:29.402Z,16.00
2022-09-09T04:09:56.695Z,16.00
2022-09-09T04:12:24.038Z,16.00
2022-09-09T04:14:51.197Z,16.00
2022-09-09T04:17:18.592Z,16.00
2022-09-09T04:19:45.902Z,16.00
2022-09-09T04:22:12.967Z,16.00
2022-09-09T04:24:40.110Z,16.00
2022-09-09T04:27:07.237Z,15.10
2022-09-09T04:29:34.743Z,15.90
2022-09-09T04:32:01.992Z,15.90
2022-09-09T04:34:30.020Z,15.90
2022-09-09T04:36:58.023Z,15.90
2022-09-09T04:39:25.118Z,15.90
2022-09-09T04:41:52.457Z,15.80
2022-09-09T04:44:19.772Z,15.80
2022-09-09T04:46:47.062Z,15.80
2022-09-09T04:49:15.339Z,15.80
2022-09-09T04:51:42.579Z,15.80
2022-09-09T04:54:09.714Z,15.90
2022-09-09T04:56:37.417Z,15.80
2022-09-09T04:59:04.867Z,15.80
2022-09-09T05:01:33.406Z,15.70
2022-09-09T05:04:00.706Z,15.80
2022-09-09T05:06:27.777Z,15.80
2022-09-09T05:08:54.976Z,15.80
2022-09-09T05:11:24.461Z,15.90
2022-09-09T05:13:52.059Z,15.80
2022-09-09T05:16:19.686Z,15.80
2022-09-09T05:18:51.624Z,15.80
2022-09-09T05:21:19.703Z,15.80
2022-09-09T05:23:47.202Z,15.80
2022-09-09T05:26:17.429Z,15.80
2022-09-09T05:28:46.875Z,15.80
2022-09-09T05:31:15.032Z,15.80
2022-09-09T05:33:44.100Z,16.60
2022-09-09T05:36:14.380Z,15.80
2022-09-09T05:38:42.141Z,15.80
2022-09-09T05:41:11.316Z,15.80
2022-09-09T05:43:39.246Z,15.80
2022-09-09T05:46:08.385Z,15.80
2022-09-09T05:48:39.900Z,15.80
2022-09-09T05:51:09.476Z,15.80
2022-09-09T05:53:37.108Z,15.80
2022-09-09T05:56:05.647Z,15.80
2022-09-09T05:58:33.590Z,15.80
2022-09-09T06:01:14.875Z,15.80
2022-09-09T06:03:42.915Z,15.80
2022-09-09T06:06:15.164Z,15.80
2022-09-09T06:08:44.893Z,15.80
2022-09-09T06:11:13.171Z,15.80
2022-09-09T06:13:40.832Z,16.80
2022-09-09T06:16:13.400Z,15.80
2022-09-09T06:18:40.992Z,15.80
2022-09-09T06:21:10.269Z,14.40
2022-09-09T06:23:37.434Z,15.80
2022-09-09T06:26:10.600Z,15.60
2022-09-09T06:28:37.906Z,15.80
2022-09-09T06:31:06.574Z,15.80
2022-09-09T06:33:43.144Z,15.80
2022-09-09T06:36:14.953Z,15.90
2022-09-09T06:38:45.664Z,15.90
2022-09-09T06:41:13.647Z,15.90
2022-09-09T06:43:40.964Z,15.90
2022-09-09T06:46:10.631Z,15.90
2022-09-09T06:48:38.012Z,16.00
2022-09-09T06:51:09.933Z,16.00
2022-09-09T06:53:37.329Z,16.00
2022-09-09T06:56:18.736Z,15.90
2022-09-09T06:58:46.769Z,15.90
2022-09-09T07:01:15.040Z,15.90
2022-09-09T07:03:43.253Z,15.90
2022-09-09T07:06:15.485Z,16.00
2022-09-09T07:08:42.760Z,15.90
2022-09-09T07:11:12.466Z,15.90
2022-09-09T07:13:39.752Z,16.00
2022-09-09T07:16:11.159Z,15.90
2022-09-09T07:18:38.360Z,16.10
2022-09-09T07:21:05.539Z,15.90
2022-09-09T07:23:36.134Z,16.00
2022-09-09T07:26:04.167Z,16.00
2022-09-09T07:28:32.365Z,16.10
2022-09-09T07:31:01.187Z,16.10
2022-09-09T07:33:28.363Z,16.10
2022-09-09T07:36:02.500Z,16.10
2022-09-09T07:38:30.412Z,16.10
2022-09-09T07:41:05.060Z,16.10
2022-09-09T07:43:32.153Z,16.10
2022-09-09T07:45:59.622Z,16.00
2022-09-09T07:48:26.966Z,16.60
2022-09-09T07:50:54.072Z,16.10
2022-09-09T07:53:21.305Z,16.20
2022-09-09T07:55:48.472Z,16.20
2022-09-09T07:58:15.723Z,16.30
2022-09-09T08:00:44.645Z,16.30
2022-09-09T08:03:11.845Z,16.30
2022-09-09T08:05:40.686Z,16.30
2022-09-09T08:08:09.306Z,16.30
2022-09-09T08:10:36.513Z,16.30
2022-09-09T08:13:19.101Z,16.40
2022-09-09T08:15:47.902Z,16.40
2022-09-09T08:18:15.029Z,16.40
2022-09-09T08:20:42.144Z,16.40
2022-09-09T08:23:09.343Z,17.40
2022-09-09T08:25:36.689Z,15.60
2022-09-09T08:28:04.426Z,16.30
2022-09-09T08:30:31.570Z,16.30
2022-09-09T08:32:58.824Z,16.40
2022-09-09T08:35:26.062Z,16.50
2022-09-09T08:37:55.233Z,16.40
2022-09-09T08:40:26.219Z,16.50
2022-09-09T08:42:56.287Z,16.50
2022-09-09T08:45:33.140Z,16.50
2022-09-09T08:48:14.545Z,16.60
2022-09-09T08:50:42.604Z,16.60
2022-09-09T08:53:21.113Z,16.70
2022-09-09T08:55:49.504Z,16.70
2022-09-09T08:58:21.460Z,16.80
2022-09-09T09:00:52.803Z,16.90
2022-09-09T09:03:26.842Z,16.80
2022-09-09T09:06:01.358Z,16.80
2022-09-09T09:08:44.478Z,16.90
2022-09-09T09:11:11.636Z,16.90
2022-09-09T09:13:45.823Z,16.90
2022-09-09T09:16:33.420Z,17.00
2022-09-09T09:19:01.168Z,17.40
2022-09-09T09:21:37.330Z,17.10
2022-09-09T09:24:05.801Z,17.10
2022-09-09T09:26:34.363Z,18.40
2022-09-09T09:29:03.585Z,17.80
2022-09-09T09:31:30.666Z,17.20
2022-09-09T09:33:59.669Z,17.20
2022-09-09T09:36:56.161Z,17.00
2022-09-09T09:42:18.806Z,17.30
2022-09-09T09:44:49.028Z,17.30
2022-09-09T09:47:19.828Z,17.40
2022-09-09T09:49:57.724Z,17.40
2022-09-09T09:52:27.244Z,18.50
2022-09-09T09:54:55.107Z,17.50
2022-09-09T09:57:29.557Z,17.50
2022-09-09T10:00:14.608Z,17.50
2022-09-09T10:02:44.408Z,17.70
2022-09-09T10:05:26.905Z,17.60
2022-09-09T10:08:10.965Z,17.60
2022-09-09T10:10:41.572Z,17.60
2022-09-09T10:13:34.612Z,17.60
2022-09-09T10:16:07.845Z,17.50
2022-09-09T10:18:47.654Z,17.50
2022-09-09T10:21:21.818Z,17.50
2022-09-09T10:24:02.836Z,17.60
2022-09-09T10:26:37.732Z,17.70
2022-09-09T10:29:25.019Z,17.80
2022-09-09T10:32:10.813Z,17.70
2022-09-09T10:34:46.454Z,17.80
2022-09-09T10:37:26.680Z,17.80
2022-09-09T10:40:01.391Z,17.90
2022-09-09T10:42:31.549Z,18.00
2022-09-09T10:45:07.791Z,18.10
2022-09-09T10:47:47.522Z,18.10
2022-09-09T10:50:38.104Z,18.20
2022-09-09T10:53:25.385Z,18.20
2022-09-09T10:55:54.739Z,18.10
2022-09-09T10:58:26.476Z,18.20
2022-09-09T11:00:58.242Z,18.30
2022-09-09T11:03:32.762Z,18.40
2022-09-09T11:06:00.118Z,18.40
2022-09-09T11:08:29.374Z,18.40
2022-09-09T11:10:57.998Z,18.40
2022-09-09T11:13:35.295Z,18.40
2022-09-09T11:16:11.655Z,18.30
2022-09-09T11:18:40.798Z,18.20
2022-09-09T11:21:11.138Z,18.10
2022-09-09T11:23:43.919Z,18.10
2022-09-09T11:26:14.199Z,18.10
2022-09-09T11:28:50.323Z,18.10
2022-09-09T11:31:17.600Z,18.10
2022-09-09T11:34:03.743Z,17.80
2022-09-09T11:36:55.469Z,17.80
2022-09-09T11:39:32.081Z,17.80
2022-09-09T11:42:16.344Z,17.80
2022-09-09T11:44:43.746Z,17.80
2022-09-09T11:47:32.860Z,18.00
2022-09-09T11:50:15.128Z,17.70
2022-09-09T11:52:44.506Z,17.70
2022-09-09T11:55:29.891Z,17.70
2022-09-09T11:58:04.416Z,17.60
2022-09-09T12:00:34.638Z,17.60
2022-09-09T12:03:02.038Z,17.70
2022-09-09T12:05:40.575Z,17.70
2022-09-09T12:08:10.633Z,17.70
2022-09-09T12:10:41.199Z,17.80
2022-09-09T12:13:27.718Z,17.90
2022-09-09T12:15:55.947Z,19.00
2022-09-09T12:18:32.740Z,18.10
2022-09-09T12:21:06.032Z,18.30
2022-09-09T12:23:53.456Z,18.40
2022-09-09T12:26:28.034Z,18.40
2022-09-09T12:29:03.496Z,18.50
2022-09-09T12:31:31.652Z,18.40
2022-09-09T12:34:06.059Z,18.40
2022-09-09T12:36:33.772Z,18.40
2022-09-09T12:39:11.973Z,18.30
2022-09-09T12:41:39.300Z,17.80
2022-09-09T12:44:07.555Z,18.30
2022-09-09T12:46:35.025Z,18.30
2022-09-09T12:49:02.187Z,18.30
2022-09-09T12:51:30.783Z,18.40
2022-09-09T12:53:59.205Z,18.50
2022-09-09T12:56:31.022Z,18.60
2022-09-09T12:58:59.358Z,18.60
2022-09-09T13:01:31.145Z,18.50
2022-09-09T13:03:59.326Z,18.50
2022-09-09T13:06:29.479Z,18.40
2022-09-09T13:08:58.400Z,18.30
2022-09-09T13:11:27.500Z,18.30
2022-09-09T13:13:56.729Z,18.30
2022-09-09T13:16:32.916Z,18.30
2022-09-09T13:19:12.461Z,18.40
2022-09-09T13:21:40.545Z,18.30
2022-09-09T13:24:23.511Z,18.40
2022-09-09T13:27:02.897Z,18.40
2022-09-09T13:29:30.628Z,18.40
2022-09-09T13:32:17.102Z,18.50
2022-09-09T13:34:57.844Z,18.60
2022-09-09T13:37:32.029Z,18.50
2022-09-09T13:39:59.301Z,18.70
2022-09-09T13:42:32.817Z,18.80
2022-09-09T13:45:01.104Z,18.80
2022-09-09T13:47:36.812Z,18.90
2022-09-09T13:50:22.103Z,18.90
2022-09-09T13:52:51.164Z,18.90
2022-09-09T13:55:19.018Z,18.90
2022-09-09T13:57:53.646Z,18.90
2022-09-09T14:00:21.971Z,18.90
2022-09-09T14:02:49.637Z,19.00
2022-09-09T14:05:17.199Z,19.10
2022-09-09T14:07:45.341Z,19.10
2022-09-09T14:10:13.211Z,19.00
2022-09-09T14:12:40.601Z,19.00
2022-09-09T14:15:09.127Z,19.00
2022-09-09T14:17:39.466Z,19.00
2022-09-09T14:20:08.733Z,19.00
2022-09-09T14:22:36.790Z,19.10
2022-09-09T14:25:04.185Z,19.10
2022-09-09T14:27:32.448Z,19.10
2022-09-09T14:30:01.079Z,19.10
2022-09-09T14:32:28.391Z,18.90
2022-09-09T14:34:55.516Z,19.20
2022-09-09T14:37:22.778Z,19.20
2022-09-09T14:39:51.561Z,19.30
2022-09-09T14:42:19.746Z,20.60
2022-09-09T14:44:46.892Z,19.50
2022-09-09T14:47:14.454Z,19.60
2022-09-09T14:49:43.810Z,19.60
2022-09-09T14:52:14.518Z,19.70
2022-09-09T14:54:41.622Z,19.80
2022-09-09T14:57:08.807Z,19.80
2022-09-09T14:59:37.772Z,19.70
2022-09-09T15:02:05.723Z,19.80
2022-09-09T15:04:33.150Z,19.80
2022-09-09T15:07:00.441Z,19.80
2022-09-09T15:09:27.635Z,19.70
2022-09-09T15:11:55.144Z,19.70
2022-09-09T15:14:25.399Z,19.70
2022-09-09T15:16:53.180Z,19.40
2022-09-09T15:19:20.263Z,18.90
2022-09-09T15:21:47.366Z,19.60
2022-09-09T15:24:14.756Z,19.60
2022-09-09T15:26:41.915Z,19.60
2022-09-09T15:29:09.515Z,19.70
2022-09-09T15:31:36.742Z,19.80
2022-09-09T15:34:08.110Z,19.90
2022-09-09T15:36:36.505Z,19.90
2022-09-09T15:39:05.239Z,19.90
2022-09-09T15:41:32.924Z,19.90
2022-09-09T15:44:01.643Z,19.90
2022-09-09T15:46:30.681Z,19.70
2022-09-09T15:48:59.050Z,19.70
2022-09-09T15:51:42.187Z,19.50
2022-09-09T15:54:11.355Z,19.40
2022-09-09T15:56:38.548Z,19.80
2022-09-09T15:59:05.782Z,19.00
2022-09-09T16:01:33.971Z,18.80
2022-09-09T16:04:01.227Z,18.70
2022-09-09T16:06:29.513Z,18.70
2022-09-09T16:08:57.913Z,18.70
2022-09-09T16:11:26.630Z,18.60
2022-09-09T16:13:55.007Z,18.70
2022-09-09T16:16:23.893Z,18.70
2022-09-09T16:18:53.233Z,18.70
2022-09-09T16:21:22.691Z,20.80
2022-09-09T16:23:50.693Z,18.70
2022-09-09T16:26:20.187Z,18.70
2022-09-09T16:28:50.288Z,18.80
2022-09-09T16:31:19.211Z,18.70
2022-09-09T16:33:47.516Z,18.70
2022-09-09T16:36:16.023Z,18.70
2022-09-09T16:38:44.381Z,18.70
2022-09-09T16:41:12.314Z,18.70
2022-09-09T16:43:39.939Z,18.70
2022-09-09T16:46:18.305Z,18.70
2022-09-09T16:48:46.131Z,18.50
2022-09-09T16:51:33.481Z,18.60
2022-09-09T16:54:02.981Z,18.60
2022-09-09T16:56:31.424Z,18.60
2022-09-09T16:58:59.963Z,18.40
2022-09-09T17:01:30.157Z,18.50
2022-09-09T17:04:01.113Z,18.60
2022-09-09T17:06:30.220Z,18.60
2022-09-09T17:08:58.517Z,18.60
2022-09-09T17:11:25.952Z,18.50
2022-09-09T17:13:53.629Z,18.50
2022-09-09T17:16:23.076Z,18.50
2022-09-09T17:18:51.551Z,18.50
2022-09-09T17:21:23.258Z,18.50
2022-09-09T17:23:50.967Z,18.40
2022-09-09T17:26:19.054Z,18.40
2022-09-09T17:28:49.493Z,18.30
2022-09-09T17:31:18.029Z,18.30
2022-09-09T17:33:47.099Z,18.30
2022-09-09T17:36:22.969Z,18.30
2022-09-09T17:38:50.290Z,18.20
2022-09-09T17:41:18.950Z,18.00
2022-09-09T17:43:46.905Z,18.10
2022-09-09T17:46:15.784Z,18.00
2022-09-09T17:48:43.978Z,18.00
2022-09-09T17:51:17.153Z,18.00
2022-09-09T17:53:45.220Z,18.00
2022-09-09T17:56:13.430Z,17.90
2022-09-09T17:58:40.988Z,18.00
2022-09-09T18:01:10.436Z,17.90
2022-09-09T18:03:38.381Z,17.90
2022-09-09T18:06:07.713Z,17.80
2022-09-09T18:08:36.861Z,17.70
2022-09-09T18:11:04.390Z,17.70
2022-09-09T18:13:32.045Z,17.70
2022-09-09T18:15:59.837Z,18.10
2022-09-09T18:18:27.374Z,17.70
2022-09-09T18:21:01.941Z,17.70
2022-09-09T18:23:30.169Z,17.60
2022-09-09T18:25:59.086Z,17.60
2022-09-09T18:28:26.930Z,17.50
2022-09-09T18:30:54.254Z,17.50
2022-09-09T18:33:21.438Z,17.40
2022-09-09T18:35:48.668Z,17.40
2022-09-09T18:38:17.696Z,17.30
2022-09-09T18:40:45.843Z,17.30
2022-09-09T18:43:14.076Z,17.30
2022-09-09T18:45:42.595Z,17.20
2022-09-09T18:48:10.173Z,17.10
2022-09-09T18:50:38.467Z,17.10
2022-09-09T18:53:05.774Z,17.10
2022-09-09T18:55:33.394Z,17.00
2022-09-09T18:58:00.586Z,17.00
2022-09-09T19:00:29.342Z,17.00
2022-09-09T19:02:56.566Z,17.00
2022-09-09T19:05:23.772Z,16.90
2022-09-09T19:07:50.967Z,16.90
2022-09-09T19:10:18.322Z,16.00
2022-09-09T19:12:45.653Z,17.00
2022-09-09T19:15:13.768Z,17.00
2022-09-09T19:17:40.910Z,17.00
2022-09-09T19:20:09.657Z,16.90
2022-09-09T19:22:36.816Z,16.90
2022-09-09T19:25:04.379Z,16.00
2022-09-09T19:27:31.561Z,15.60
2022-09-09T19:29:59.955Z,16.90
2022-09-09T19:32:52.297Z,16.90
2022-09-09T19:35:14.433Z,16.90
2022-09-09T19:37:42.562Z,17.00
2022-09-09T19:40:11.399Z,16.90
2022-09-09T19:42:38.647Z,17.00
2022-09-09T19:45:07.284Z,17.00
2022-09-09T19:47:34.398Z,16.90
2022-09-09T19:50:02.323Z,16.90
2022-09-09T19:52:29.693Z,17.00
2022-09-09T19:54:57.103Z,17.00
2022-09-09T19:57:24.402Z,16.90
2022-09-09T19:59:51.530Z,16.90
2022-09-09T20:02:18.770Z,16.90
2022-09-09T20:04:47.448Z,16.90
2022-09-09T20:07:15.233Z,16.90
2022-09-09T20:09:42.620Z,16.90
2022-09-09T20:12:10.260Z,16.90
2022-09-09T20:14:39.922Z,16.80
2022-09-09T20:17:07.444Z,16.80
2022-09-09T20:19:34.932Z,16.80
2022-09-09T20:22:01.999Z,16.80
2022-09-09T20:24:29.499Z,16.80
2022-09-09T20:26:57.788Z,16.80
2022-09-09T20:29:26.153Z,16.80
2022-09-09T20:31:53.369Z,16.80
2022-09-09T20:34:25.864Z,16.80
2022-09-09T20:36:54.314Z,16.80
2022-09-09T20:39:22.548Z,16.90
2022-09-09T20:41:50.153Z,16.90
2022-09-09T20:44:24.292Z,16.90
2022-09-09T20:46:54.307Z,16.80
2022-09-09T20:49:23.170Z,16.80
2022-09-09T20:51:50.944Z,16.80
2022-09-09T20:54:23.418Z,16.80
2022-09-09T20:56:51.812Z,16.80
2022-09-09T20:59:20.839Z,16.80
2022-09-09T21:01:48.831Z,16.80
2022-09-09T21:04:17.458Z,16.80
2022-09-09T21:06:44.873Z,16.80
2022-09-09T21:09:13.166Z,16.80
2022-09-09T21:11:40.618Z,16.80
2022-09-09T21:14:08.258Z,16.80
2022-09-09T21:16:35.452Z,16.70
2022-09-09T21:19:02.632Z,16.70
2022-09-09T21:21:29.946Z,16.70
2022-09-09T21:23:58.391Z,16.70
2022-09-09T21:26:26.072Z,16.70
2022-09-09T21:28:55.112Z,16.70
2022-09-09T21:31:27.455Z,16.70
2022-09-09T21:33:58.761Z,16.70
2022-09-09T21:36:28.290Z,16.60
2022-09-09T21:38:55.964Z,16.60
2022-09-09T21:41:24.931Z,16.60
2022-09-09T21:43:53.217Z,16.50
2022-09-09T21:46:20.599Z,16.50
2022-09-09T21:48:47.866Z,16.50
2022-09-09T21:51:18.256Z,16.40
2022-09-09T21:53:45.450Z,16.70
2022-09-09T21:56:14.254Z,16.40
2022-09-09T21:58:42.726Z,16.40
2022-09-09T22:01:11.176Z,16.40
2022-09-09T22:03:39.286Z,16.00
2022-09-09T22:06:07.077Z,16.40
2022-09-09T22:08:34.522Z,16.50
2022-09-09T22:11:08.830Z,16.40
2022-09-09T22:13:36.950Z,16.40
2022-09-09T22:16:05.499Z,16.40
2022-09-09T22:18:32.712Z,16.40
2022-09-09T22:21:00.353Z,16.40
2022-09-09T22:23:27.799Z,14.90
2022-09-09T22:25:58.279Z,16.40
2022-09-09T22:28:25.580Z,16.40
2022-09-09T22:30:52.707Z,16.40
2022-09-09T22:33:20.942Z,16.40
2022-09-09T22:35:48.277Z,16.40
2022-09-09T22:38:15.441Z,16.40
2022-09-09T22:40:42.928Z,16.40
2022-09-09T22:43:14.545Z,16.40
2022-09-09T22:45:42.862Z,16.40
2022-09-09T22:48:10.372Z,16.40
2022-09-09T22:50:42.044Z,16.40
2022-09-09T22:53:13.932Z,16.40
2022-09-09T22:55:41.205Z,16.30
2022-09-09T22:58:08.774Z,16.40
2022-09-09T23:00:35.908Z,16.30
2022-09-09T23:03:02.990Z,16.30
2022-09-09T23:05:30.710Z,16.30
2022-09-09T23:07:58.731Z,16.30
2022-09-09T23:10:27.250Z,16.30
2022-09-09T23:12:54.901Z,16.20
2022-09-09T23:15:23.137Z,16.30
2022-09-09T23:17:52.325Z,16.20
2022-09-09T23:20:19.643Z,16.20
2022-09-09T23:22:46.825Z,16.20
2022-09-09T23:25:13.921Z,16.20
2022-09-09T23:27:41.853Z,16.20
2022-09-09T23:30:09.998Z,16.20
2022-09-09T23:32:37.445Z,16.20
2022-09-09T23:35:07.495Z,16.20
2022-09-09T23:37:37.141Z,16.20
2022-09-09T23:40:04.434Z,16.20
2022-09-09T23:42:33.977Z,16.50
2022-09-09T23:45:01.156Z,16.20
2022-09-09T23:47:28.885Z,16.10
2022-09-09T23:49:55.983Z,16.10
2022-09-09T23:52:25.222Z,16.10
2022-09-09T23:54:53.977Z,16.10
2022-09-09T23:57:21.825Z,16.10
2022-09-09T23:59:49.574Z,16.10
